• Join FlightAware (Why Join?)
  • Login
  • US Flag 
07:03PM EDT


 

Airport Tracker/Info


-or-


 

Live Flight TrackerFlight Track Log ✈ AAL1624 ✈ 24-Apr-2013 ✈ KLAX - KORD

Flight Track Log - Related Links

Times and Time Zones

All times are in EDT time to prevent confusion due to time zone crossing. See the AAL1624 flight status page for this flight to view local times or setup timezone preferences in your user account.

Time Position Orientation Groundspeed Altitude Reporting Facility
EDT Latitude Longitude Course Direction KTS MPH feet Rate Location/Type
07:00PM 33.9320 -118.4470 250° West 183 211 1,600  Level FlightAware
07:01PM 33.9260 -118.4590 239° Southwest 192 221 1,800 1,020 Climbing FlightAware
07:01PM 33.9090 -118.4850 232° Southwest 222 255 2,300 1,200 Climbing FlightAware
07:02PM 33.8890 -118.5150 231° Southwest 253 291 2,900 1,380 Climbing FlightAware
07:02PM 33.8680 -118.5370 221° Southwest 264 304 3,600 1,920 Climbing FlightAware
07:02PM 33.8510 -118.5400 188° South 259 298 4,200 2,520 Climbing FlightAware
07:03PM 33.8170 -118.5360 174° South 258 297 5,500 2,700 Climbing FlightAware
07:03PM 33.7850 -118.5320 174° South 257 296 6,700 3,120 Climbing FlightAware
07:04PM 33.7400 -118.5260 174° South 259 298 8,400 3,000 Climbing FlightAware
07:04PM 33.7030 -118.5140 165° South 258 297 9,700 2,520 Climbing FlightAware
07:04PM 33.6960 -118.5040 130° Southeast 259 298 10,100 1,680 Climbing FlightAware
07:05PM 33.6870 -118.4820 116° Southeast 277 319 10,400 1,920 Climbing FlightAware
07:05PM 33.6670 -118.4200 111° Southeast 299 344 11,900 2,280 Climbing FlightAware
07:06PM 33.6480 -118.3500 108° East 318 366 13,700 2,520 Climbing FlightAware
07:07PM 33.6450 -118.2750 93° East 335 386 15,500 1,800 Climbing FlightAware
07:07PM 33.6450 -118.1970 90° East 380 437 16,100 1,500 Climbing FlightAware
07:08PM 33.6440 -118.0980 91° East 400 460 17,700 2,100 Climbing FlightAware
07:09PM 33.6450 -117.9980 89° East 414 476 19,300 2,040 Climbing FlightAware
07:09PM 33.6450 -117.9050 90° East 425 489 20,600 1,800 Climbing FlightAware
07:10PM 33.6440 -117.8100 91° East 437 503 21,700 1,620 Climbing FlightAware
07:11PM 33.6440 -117.6960 90° East 451 519 22,900 1,500 Climbing FlightAware
07:12PM 33.6430 -117.5960 91° East 461 531 23,900 1,380 Climbing FlightAware
07:12PM 33.6430 -117.4820 90° East 472 543 24,900 1,500 Climbing FlightAware
07:13PM 33.6420 -117.3760 91° East 474 545 26,100 1,860 Climbing FlightAware
07:14PM 33.6410 -117.2720 91° East 470 541 27,400 1,800 Climbing FlightAware
07:14PM 33.6400 -117.1500 91° East 469 540 28,700 1,560 Climbing FlightAware
07:15PM 33.6400 -117.0650 90° East 470 541 29,500 1,440 Climbing FlightAware
07:16PM 33.6380 -116.9340 91° East 469 540 30,800 1,500 Climbing FlightAware
07:16PM 33.6450 -116.8300 85° East 474 545 31,800 1,380 Climbing FlightAware
07:17PM 33.6690 -116.7190 75° East 474 545 32,800 1,560 Climbing FlightAware
07:18PM 33.6950 -116.6010 75° East 465 535 34,200 1,620 Climbing FlightAware
07:19PM 33.7160 -116.5030 76° East 459 528 35,100 1,080 Climbing FlightAware
07:19PM 33.7360 -116.4150 75° East 459 528 35,600 660 Climbing FlightAware
07:20PM 33.7590 -116.3090 75° East 467 537 36,000 600 Climbing FlightAware
07:21PM 33.7830 -116.1980 75° East 472 543 36,500 660 Climbing FlightAware
07:21PM 33.8070 -116.0900 75° East 475 547 37,000 360 Climbing FlightAware
07:22PM 33.8280 -115.9940 75° East 478 550 37,000  Level FlightAware
07:23PM 33.8470 -115.9070 75° East 478 550 37,000  Level FlightAware
07:24PM 33.8710 -115.7970 75° East 478 550 37,000  Level FlightAware
07:24PM 33.8860 -115.7320 74° East 478 550 37,000  Level FlightAware
07:25PM 33.9100 -115.6220 75° East 478 550 37,000  Level FlightAware
07:26PM 33.9300 -115.5350 74° East 478 550 37,000  Level FlightAware
07:26PM 33.9490 -115.4470 75° East 478 550 37,000  Level FlightAware
07:27PM 33.9690 -115.3600 74° East 478 550 37,000  Level FlightAware
07:28PM 33.9930 -115.2500 75° East 478 550 37,000  Level FlightAware
07:28PM 34.0120 -115.1630 75° East 478 550 37,000  Level FlightAware
07:29PM 34.0320 -115.0750 75° East 478 550 37,000  Level FlightAware
07:30PM 34.0510 -114.9870 75° East 478 550 37,000  Level FlightAware
07:31PM 34.0760 -114.8780 74° East 478 550 37,000  Level FlightAware
07:31PM 34.1310 -114.5800 77° East 490 564 37,000  Level FlightAware
07:32PM 34.1570 -114.4850 72° East 492 566 37,000  Level FlightAware
07:33PM 34.1930 -114.3590 71° East 494 568 37,000  Level FlightAware
07:33PM 34.2180 -114.2690 71° East 495 570 37,000  Level FlightAware
07:34PM 34.2520 -114.1500 71° East 497 572 37,000  Level FlightAware
07:35PM 34.2770 -114.0600 71° East 499 574 37,000  Level FlightAware
07:35PM 34.3160 -113.9180 72° East 500 575 37,000  Level FlightAware
07:36PM 34.3500 -113.7950 71° East 502 578 37,000  Level FlightAware
07:37PM 34.3830 -113.6730 72° East 502 578 37,000  Level FlightAware
07:37PM 34.4140 -113.5620 71° East 504 580 37,000  Level FlightAware
07:38PM 34.4460 -113.4440 72° East 504 580 37,000  Level FlightAware
07:39PM 34.4750 -113.3350 72° East 503 579 37,000  Level FlightAware
07:40PM 34.5030 -113.2290 72° East 501 577 37,000  Level FlightAware
07:40PM 34.5360 -113.1080 72° East 500 575 37,000  Level FlightAware
07:41PM 34.5650 -113.0010 72° East 501 577 37,000  Level FlightAware
07:42PM 34.5970 -112.8820 72° East 503 579 37,000  Level FlightAware
07:42PM 34.6250 -112.7760 72° East 502 578 37,000  Level FlightAware
07:43PM 34.6580 -112.6510 72° East 504 580 37,000  Level FlightAware
07:44PM 34.6850 -112.5460 73° East 506 582 37,000  Level FlightAware
07:44PM 34.7120 -112.4420 72° East 506 582 37,000  Level FlightAware
07:45PM 34.7410 -112.3170 74° East 506 582 37,000  Level FlightAware
07:46PM 34.7650 -112.2060 75° East 507 583 37,000  Level FlightAware
07:47PM 34.7940 -112.0790 74° East 507 583 37,000  Level FlightAware
07:47PM 34.8140 -111.9900 75° East 508 585 37,000  Level FlightAware
07:48PM 34.8470 -111.8490 74° East 509 586 37,000  Level FlightAware
07:49PM 34.8820 -111.6930 75° East 509 586 37,000  Level FlightAware
07:50PM 34.9040 -111.5930 75° East 509 586 37,000  Level FlightAware
07:50PM 34.9250 -111.4990 75° East 510 587 37,000  Level FlightAware
07:51PM 34.9490 -111.3880 75° East 510 587 37,000  Level FlightAware
07:52PM 34.9770 -111.2630 75° East 510 587 37,000  Level FlightAware
07:53PM 35.0140 -111.0950 75° East 513 590 37,000  Level FlightAware
07:54PM 35.0450 -110.9550 75° East 514 592 37,000  Level FlightAware
07:54PM 35.0690 -110.8430 75° East 514 592 37,000  Level FlightAware
07:55PM 35.0950 -110.7210 75° East 514 592 37,000  Level FlightAware
07:56PM 35.1180 -110.6150 75° East 514 592 37,000  Level FlightAware
07:56PM 35.1460 -110.4840 75° East 515 593 37,000  Level FlightAware
07:57PM 35.1690 -110.3790 75° East 515 593 37,000  Level FlightAware
07:58PM 35.1900 -110.2830 75° East 515 593 37,000  Level FlightAware
07:58PM 35.2110 -110.1880 75° East 515 593 37,000  Level FlightAware
07:59PM 35.2370 -110.0680 75° East 515 593 37,000  Level FlightAware
08:00PM 35.2580 -109.9720 75° East 515 593 37,000  Level FlightAware
08:01PM 35.2790 -109.8760 75° East 515 593 37,000  Level FlightAware
08:01PM 35.3000 -109.7800 75° East 515 593 37,000  Level FlightAware
08:02PM 35.3210 -109.6850 75° East 515 593 37,000  Level FlightAware
08:03PM 35.3470 -109.5650 75° East 515 593 37,000  Level FlightAware
08:03PM 35.3680 -109.4690 75° East 515 593 37,000  Level FlightAware
08:04PM 35.3890 -109.3730 75° East 515 593 37,000  Level FlightAware
08:05PM 35.4440 -109.0350 79° East 533 613 37,000  Level FlightAware
08:06PM 35.4710 -108.9010 76° East 533 613 37,000  Level FlightAware
08:06PM 35.4940 -108.8090 73° East 532 612 37,000  Level FlightAware
08:07PM 35.5410 -108.6360 71° East 533 613 37,000  Level FlightAware
08:08PM 35.5780 -108.4980 72° East 534 615 37,000  Level FlightAware
08:09PM 35.6120 -108.3700 72° East 537 618 37,000  Level FlightAware
08:09PM 35.6440 -108.2530 71° East 540 621 37,000  Level FlightAware
08:10PM 35.6790 -108.1200 72° East 540 621 37,000  Level FlightAware
08:11PM 35.7110 -108.0010 72° East 543 625 37,000  Level FlightAware
08:11PM 35.7360 -107.9050 72° East 542 624 37,000  Level FlightAware
08:12PM 35.7740 -107.7610 72° East 538 619 37,000  Level FlightAware
08:13PM 35.8020 -107.6530 72° East 537 618 37,000  Level FlightAware
08:13PM 35.8380 -107.5150 72° East 538 619 37,000  Level FlightAware
08:14PM 35.8710 -107.3910 72° East 538 619 37,000  Level FlightAware
08:15PM 35.9010 -107.2730 73° East 539 620 37,000  Level FlightAware
08:16PM 35.9340 -107.1450 72° East 541 623 37,000  Level FlightAware
08:16PM 35.9650 -107.0250 72° East 542 624 37,000  Level FlightAware
08:17PM 35.9900 -106.9260 73° East 541 623 37,000  Level FlightAware
08:18PM 36.0270 -106.7800 73° East 540 621 37,000  Level FlightAware
08:18PM 36.0580 -106.6570 73° East 541 623 37,000  Level FlightAware
08:19PM 36.0840 -106.5550 72° East 538 619 37,000  Level FlightAware
08:20PM 36.1200 -106.4100 73° East 538 619 37,000  Level FlightAware
08:21PM 36.1570 -106.2640 73° East 537 618 37,000  Level FlightAware
08:21PM 36.1840 -106.1640 71° East 537 618 37,000  Level FlightAware
08:22PM 36.2100 -106.0650 72° East 537 618 37,000  Level FlightAware
08:23PM 36.2360 -105.9650 72° East 537 618 37,000  Level FlightAware
08:23PM 36.2680 -105.8410 72° East 537 618 37,000  Level FlightAware
08:24PM 36.2940 -105.7410 72° East 537 618 37,000  Level FlightAware
08:25PM 36.3210 -105.6410 71° East 537 618 37,000  Level FlightAware
08:25PM 36.3470 -105.5420 72° East 537 618 37,000  Level FlightAware
08:26PM 36.3730 -105.4420 72° East 537 618 37,000  Level FlightAware
08:27PM 36.3920 -105.3670 73° East 537 618 37,000  Level FlightAware
08:27PM 36.4180 -105.2670 72° East 537 618 37,000  Level FlightAware
08:28PM 36.4510 -105.1420 72° East 537 618 37,000  Level FlightAware
08:29PM 36.4770 -105.0420 72° East 537 618 37,000  Level FlightAware
08:29PM 36.5030 -104.9430 72° East 537 618 37,000  Level FlightAware
08:30PM 36.5836 -104.6214 72° East 555 639 37,000  Level Kansas City Center
08:31PM 36.6200 -104.5192 66° East 548 631 37,000  Level Albuquerque Center
08:32PM 36.6953 -104.3147 65° Northeast 549 632 37,000  Level Albuquerque Center
08:33PM 36.7575 -104.1425 66° East 543 625 37,000  Level Albuquerque Center
08:38PM 37.1106 -103.1430 66° East 549 632 37,000  Level FlightAware ADS-B
08:39PM 37.1410 -103.0560 66° East 548 631 37,000  Level FlightAware ADS-B
08:39PM 37.1720 -102.9670 66° East 554 638 37,000  Level FlightAware ADS-B
08:40PM 37.2024 -102.8790 67° East 555 639 37,000  Level FlightAware ADS-B
08:40PM 37.2330 -102.7890 67° East 554 638 37,000  Level FlightAware ADS-B
08:41PM 37.2641 -102.6990 67° East 553 636 37,000  Level FlightAware ADS-B
08:41PM 37.2822 -102.6417 67° East 552 635 37,000  Level Kansas City Center
08:42PM 37.3219 -102.5292 66° East 552 635 37,000  Level Albuquerque Center
08:43PM 37.3803 -102.3586 67° East 553 636 37,000  Level Albuquerque Center
08:44PM 37.4472 -102.1622 67° East 549 632 37,000  Level Albuquerque Center
08:45PM 37.5031 -101.9919 67° East 550 633 37,000  Level Albuquerque Center
08:46PM 37.5603 -101.8225 67° East 549 632 37,000  Level Albuquerque Center
08:46PM 37.5881 -101.7367 68° East 550 633 37,000  Level Kansas City Center
08:47PM 37.6447 -101.5669 67° East 549 632 37,000  Level Kansas City Center
08:48PM 37.7103 -101.3681 67° East 548 631 37,000  Level Kansas City Center
08:49PM 37.7667 -101.1944 68° East 552 635 37,000  Level Kansas City Center
08:50PM 37.8333 -100.9903 67° East 554 638 37,000  Level Kansas City Center
08:51PM 37.8908 -100.8131 68° East 557 641 37,000  Level Kansas City Center
08:53PM 37.9486 -100.6350 68° East 563 648 37,000  Level Kansas City Center
08:54PM 38.0189 -100.4311 66° East 563 648 37,000  Level Kansas City Center
08:55PM 38.0783 -100.2561 67° East 563 648 37,000  Level Kansas City Center
08:56PM 38.1464 -100.0481 67° East 568 654 37,000  Level Kansas City Center
08:57PM 38.2050 -99.8725 67° East 566 651 37,000  Level Kansas City Center
08:58PM 38.2633 -99.6967 67° East 564 649 37,000  Level Kansas City Center
08:59PM 38.3308 -99.4953 67° East 557 641 37,000  Level Kansas City Center
09:00PM 38.3817 -99.3353 68° East 556 640 37,000  Level Kansas City Center
09:01PM 38.4422 -99.1489 67° East 564 649 37,000  Level Kansas City Center
09:02PM 38.5144 -98.9247 68° East 567 652 37,000  Level Kansas City Center
09:03PM 38.5769 -98.7361 67° East 573 659 37,000  Level Kansas City Center
09:04PM 38.6361 -98.5497 68° East 565 650 37,000  Level Kansas City Center
09:05PM 38.6947 -98.3639 68° East 561 646 37,000  Level Kansas City Center
09:06PM 38.7533 -98.1772 68° East 562 647 37,000  Level Kansas City Center
09:07PM 38.8111 -97.9914 68° East 559 643 37,000  Level Kansas City Center
09:08PM 38.8753 -97.7864 68° East 553 636 37,000  Level Kansas City Center
09:09PM 38.9283 -97.6128 69° East 546 628 37,000  Level Kansas City Center
09:10PM 38.9833 -97.4061 71° East 547 629 37,000  Level Kansas City Center
09:11PM 39.0297 -97.2289 71° East 546 628 37,000 -60 Level Kansas City Center
09:17PM 39.2950 -96.1930 71° East 535 616 36,600 -180 Descending FlightAware
09:18PM 39.3290 -96.0570 72° East 526 605 35,900 -1,020 Descending FlightAware
09:19PM 39.3610 -95.9290 72° East 522 601 35,200 -1,020 Descending FlightAware
09:19PM 39.3950 -95.7930 72° East 539 620 34,500 -900 Descending FlightAware
09:20PM 39.4200 -95.6970 71° East 538 619 34,000 -1,020 Descending FlightAware
09:21PM 39.4540 -95.5570 72° East 536 617 33,200 -720 Descending FlightAware
09:21PM 39.4760 -95.4670 72° East 536 617 33,000 -180 Descending FlightAware
09:22PM 39.5420 -95.1910 73° East 536 617 33,000  Level FlightAware
09:23PM 39.5770 -95.0470 72° East 540 621 33,000  Level FlightAware
09:23PM 39.6060 -94.9230 73° East 540 621 33,000  Level FlightAware
09:24PM 39.6360 -94.8010 72° East 539 620 33,000  Level FlightAware
09:25PM 39.6680 -94.6660 73° East 538 619 33,000  Level FlightAware
09:26PM 39.6970 -94.5420 73° East 538 619 33,000  Level FlightAware
09:26PM 39.7300 -94.4000 73° East 539 620 33,000  Level FlightAware
09:27PM 39.7590 -94.2740 73° East 541 623 33,000  Level FlightAware
09:28PM 39.7920 -94.1360 73° East 541 623 33,000  Level FlightAware
09:28PM 39.8210 -94.0110 73° East 542 624 33,000  Level FlightAware
09:29PM 39.8490 -93.8870 74° East 541 623 33,000  Level FlightAware
09:30PM 39.8820 -93.7510 72° East 538 619 33,000  Level FlightAware
09:30PM 39.9190 -93.6300 68° East 542 624 33,000  Level FlightAware
09:31PM 39.9550 -93.5060 69° East 542 624 33,000  Level FlightAware
09:32PM 39.9960 -93.3700 68° East 544 626 33,000  Level FlightAware
09:33PM 40.0330 -93.2430 69° East 544 626 33,000  Level FlightAware
09:33PM 40.0720 -93.1100 69° East 544 626 33,000  Level FlightAware
09:34PM 40.1080 -92.9870 69° East 544 626 33,000  Level FlightAware
09:35PM 40.1440 -92.8630 69° East 544 626 33,000  Level FlightAware
09:35PM 40.1840 -92.7230 69° East 545 627 33,000  Level FlightAware
09:36PM 40.2190 -92.5990 70° East 544 626 33,000  Level FlightAware
09:37PM 40.2580 -92.4640 69° East 543 625 33,000  Level FlightAware
09:37PM 40.2930 -92.3410 70° East 540 621 33,000  Level FlightAware
09:38PM 40.3280 -92.2170 70° East 540 621 33,000  Level FlightAware
09:39PM 40.3640 -92.0870 70° East 540 621 33,000  Level FlightAware
09:40PM 40.3990 -91.9630 70° East 539 620 33,000  Level FlightAware
09:40PM 40.4400 -91.8180 70° East 539 620 33,000  Level FlightAware
09:41PM 40.4730 -91.6960 70° East 541 623 33,000  Level FlightAware
09:42PM 40.5100 -91.5620 70° East 541 623 33,000  Level FlightAware
09:42PM 40.5390 -91.4570 70° East 541 623 33,000  Level FlightAware
09:43PM 40.5850 -91.3140 67° East 539 620 33,000  Level FlightAware
09:44PM 40.6250 -91.1940 66° East 540 621 33,000  Level FlightAware
09:44PM 40.6710 -91.0590 66° East 540 621 33,000  Level FlightAware
09:45PM 40.7170 -90.9240 66° East 540 621 33,000  Level FlightAware
09:46PM 40.7450 -90.8410 66° East 541 623 33,000  Level FlightAware
09:47PM 40.8150 -90.6360 66° East 542 624 33,000 -120 Level FlightAware
09:48PM 40.8580 -90.5060 66° East 541 623 32,800 -600 Descending FlightAware
09:48PM 40.8940 -90.3960 67° East 538 619 32,200 -1,320 Descending FlightAware
09:49PM 40.9370 -90.2670 66° East 531 611 31,100 -1,980 Descending FlightAware
09:50PM 40.9840 -90.1270 66° East 518 596 29,300 -2,340 Descending FlightAware
09:50PM 41.0180 -90.0230 67° East 504 580 27,800 -2,340 Descending FlightAware
09:51PM 41.0570 -89.9040 66° East 486 559 26,200 -2,340 Descending FlightAware
09:52PM 41.0930 -89.7950 66° East 472 543 24,700 -1,560 Descending FlightAware
09:52PM 41.1300 -89.6810 67° East 472 543 24,000 -840 Descending FlightAware
09:53PM 41.1710 -89.5600 66° East 468 539 23,500 -1,380 Descending FlightAware
09:54PM 41.2120 -89.4580 62° Northeast 454 522 22,100 -2,160 Descending FlightAware
09:55PM 41.2550 -89.3520 62° Northeast 438 504 20,500 -2,160 Descending FlightAware
09:55PM 41.2940 -89.2560 62° Northeast 428 493 19,100 -2,040 Descending FlightAware
09:56PM 41.3290 -89.1680 62° Northeast 420 483 17,800 -2,100 Descending FlightAware
09:57PM 41.3710 -89.0650 61° Northeast 405 466 16,200 -2,100 Descending FlightAware
09:57PM 41.4050 -88.9790 62° Northeast 391 450 14,900 -1,980 Descending FlightAware
09:58PM 41.4380 -88.8950 62° Northeast 376 433 13,600 -1,860 Descending FlightAware
09:59PM 41.4740 -88.8050 62° Northeast 374 430 12,300 -1,800 Descending FlightAware
09:59PM 41.5060 -88.7240 62° Northeast 368 423 11,100 -1,140 Descending FlightAware
10:00PM 41.5380 -88.6430 62° Northeast 364 419 10,800 -240 Descending FlightAware
10:01PM 41.5720 -88.5550 63° Northeast 361 415 10,800  Level FlightAware
10:02PM 41.6090 -88.4670 61° Northeast 359 413 10,800  Level FlightAware
10:02PM 41.6500 -88.3960 52° Northeast 357 411 10,800  Level FlightAware
10:03PM 41.6950 -88.3190 52° Northeast 347 399 10,800 -180 Level FlightAware
10:04PM 41.7330 -88.2550 51° Northeast 308 354 10,600 -720 Descending FlightAware
10:04PM 41.7600 -88.2090 52° Northeast 301 346 10,000 -1,320 Descending FlightAware
10:05PM 41.7810 -88.1730 52° Northeast 298 343 9,400 -1,560 Descending FlightAware
10:05PM 41.8060 -88.1290 53° Northeast 296 341 8,600 -1,440 Descending FlightAware
10:05PM 41.8250 -88.0950 53° Northeast 295 339 8,100 -1,320 Descending FlightAware
10:06PM 41.8500 -88.0500 53° Northeast 291 335 7,400 -1,140 Descending FlightAware
10:06PM 41.8690 -88.0170 52° Northeast 278 320 7,100 -600 Descending FlightAware
10:07PM 41.8840 -87.9680 68° East 264 304 6,900 -360 Descending FlightAware
10:07PM 41.8840 -87.9630 90° East 262 302 6,900 -180 Level FlightAware
10:08PM 41.8840 -87.9110 90° East 250 288 6,800  Descending FlightAware
10:08PM 41.8840 -87.8620 90° East 241 277 6,900  Climbing FlightAware
10:09PM 41.8850 -87.8200 88° East 210 242 6,800 -660 Descending FlightAware
10:09PM 41.8850 -87.7880 90° East 206 237 6,300 -1,140 Descending FlightAware
10:09PM 41.8840 -87.7500 92° East 202 232 5,800 -900 Descending FlightAware
10:10PM 41.8840 -87.7240 90° East 198 228 5,500 -1,140 Descending FlightAware
10:10PM 41.8840 -87.6840 90° East 201 231 4,800 -1,320 Descending FlightAware
10:11PM 41.8880 -87.6470 82° East 202 232 4,200 -1,200 Descending FlightAware
10:11PM 41.8950 -87.6380 44° Northeast 195 224 4,000 -960 Descending FlightAware
10:11PM 41.9070 -87.6330 17° North 185 213 3,800 -300 Descending FlightAware
10:12PM 41.9290 -87.6310 North 184 212 3,800  Level FlightAware
10:12PM 41.9420 -87.6400 333° Northwest 162 186 3,800  Level FlightAware
10:12PM 41.9530 -87.6610 305° West 161 185 3,800 -480 Level FlightAware
10:13PM 41.9660 -87.6870 304° West 161 185 3,400 -840 Descending FlightAware
10:13PM 41.9680 -87.6990 283° West 155 178 3,200 -780 Descending FlightAware
10:14PM 41.9690 -87.7230 273° West 153 176 2,900 -840 Descending FlightAware
10:14PM 41.9690 -87.7290 270° West 152 175 2,800 -900 Descending FlightAware
10:15PM 41.9690 -87.7800 270° West 150 173 2,000 -840 Descending FlightAware
10:15PM 41.9690 -87.7940 270° West 136 157 1,800 -660 Descending FlightAware
10:16PM 41.9690 -87.8270 270° West 137 158 1,400 -720 Descending FlightAware
10:16PM 41.9690 -87.8480 270° West 140 161 1,100 -840 Descending FlightAware
10:16PM 41.9690 -87.8660 270° West 148 170 800 -900 Descending FlightAware